createdAt,value
2019-02-12T00:01:01.635Z,94569.95
2019-02-12T00:03:30.221Z,94568.64
2019-02-12T00:05:58.204Z,94577.41
2019-02-12T00:08:26.967Z,94582.40
2019-02-12T00:10:54.860Z,94592.06
2019-02-12T00:13:23.132Z,94607.20
2019-02-12T00:15:51.382Z,94608.89
2019-02-12T00:18:19.595Z,94607.64
2019-02-12T00:20:47.985Z,94606.28
2019-02-12T00:23:16.156Z,94599.65
2019-02-12T00:25:44.749Z,94612.23
2019-02-12T00:31:15.292Z,94613.90
2019-02-12T00:33:44.038Z,94620.63
2019-02-12T00:36:11.967Z,94619.01
2019-02-12T00:38:40.301Z,94614.91
2019-02-12T00:41:08.675Z,94623.68
2019-02-12T00:43:37.268Z,94626.01
2019-02-12T00:46:05.898Z,94624.94
2019-02-12T00:48:34.698Z,94620.64
2019-02-12T00:51:03.421Z,94620.64
2019-02-12T00:53:31.770Z,94613.86
2019-02-12T00:56:00.219Z,94626.95
2019-02-12T00:58:28.955Z,94638.62
2019-02-12T01:00:56.836Z,94649.23
2019-02-12T01:03:24.786Z,94653.50
2019-02-12T01:05:52.787Z,94647.19
2019-02-12T01:08:21.091Z,94644.72
2019-02-12T01:10:49.471Z,94645.09
2019-02-12T01:13:17.717Z,94643.41
2019-02-12T01:15:46.390Z,94638.30
2019-02-12T01:18:14.790Z,94654.78
2019-02-12T01:20:43.011Z,94656.39
2019-02-12T01:23:11.311Z,94657.66
2019-02-12T01:25:39.947Z,94660.59
2019-02-12T01:28:09.093Z,94656.98
2019-02-12T01:30:37.774Z,94668.58
2019-02-12T01:33:06.327Z,94681.03
2019-02-12T01:35:34.609Z,94684.66
2019-02-12T01:38:02.882Z,94690.41
2019-02-12T01:40:31.360Z,94693.36
2019-02-12T01:42:59.667Z,94691.19
2019-02-12T01:45:28.026Z,94688.72
2019-02-12T01:47:56.643Z,94694.61
2019-02-12T01:50:25.284Z,94695.11
2019-02-12T01:52:53.110Z,94697.27
2019-02-12T01:55:21.526Z,94693.00
2019-02-12T01:57:49.847Z,94698.83
2019-02-12T02:00:18.467Z,94689.98
2019-02-12T02:02:47.148Z,94694.32
2019-02-12T02:05:15.761Z,94694.84
2019-02-12T02:07:44.416Z,94688.53
2019-02-12T02:10:14.577Z,94681.58
2019-02-12T02:12:42.574Z,94679.36
2019-02-12T02:15:11.163Z,94670.52
2019-02-12T02:17:39.484Z,94675.17
2019-02-12T02:20:08.616Z,94676.47
2019-02-12T02:22:37.073Z,94687.52
2019-02-12T02:25:05.595Z,94686.64
2019-02-12T02:27:34.544Z,94685.73
2019-02-12T02:30:02.984Z,94684.77
2019-02-12T02:32:31.648Z,94678.94
2019-02-12T02:34:59.938Z,94683.52
2019-02-12T02:37:28.217Z,94689.28
2019-02-12T02:39:56.483Z,94692.16
2019-02-12T02:42:24.807Z,94694.34
2019-02-12T02:44:53.091Z,94683.62
2019-02-12T02:47:21.083Z,94694.33
2019-02-12T02:49:49.830Z,94698.17
2019-02-12T02:52:17.798Z,94709.77
2019-02-12T02:54:46.188Z,94719.50
2019-02-12T02:57:14.158Z,94722.52
2019-02-12T02:59:42.943Z,94723.23
2019-02-12T03:02:11.586Z,94727.61
2019-02-12T03:04:40.610Z,94725.44
2019-02-12T03:07:08.504Z,94728.02
2019-02-12T03:09:37.196Z,94737.64
2019-02-12T03:12:05.864Z,94735.41
2019-02-12T03:14:33.808Z,94733.91
2019-02-12T03:17:01.857Z,94735.95
2019-02-12T03:19:30.191Z,94732.91
2019-02-12T03:22:03.723Z,94735.66
2019-02-12T03:24:35.541Z,94746.67
2019-02-12T03:27:03.863Z,94746.77
2019-02-12T03:29:31.747Z,94745.95
2019-02-12T03:31:59.614Z,94746.00
2019-02-12T03:34:27.898Z,94740.91
2019-02-12T03:36:56.647Z,94734.48
2019-02-12T03:39:24.537Z,94740.58
2019-02-12T03:41:53.373Z,94744.20
2019-02-12T03:44:21.648Z,94752.97
2019-02-12T03:46:50.377Z,94759.39
2019-02-12T03:49:19.036Z,94759.72
2019-02-12T03:51:47.406Z,94764.98
2019-02-12T03:54:16.029Z,94763.84
2019-02-12T03:56:43.991Z,94771.91
2019-02-12T03:59:12.249Z,94768.06
2019-02-12T04:01:40.513Z,94778.56
2019-02-12T04:04:09.146Z,94775.28
2019-02-12T04:06:36.963Z,94784.45
2019-02-12T04:09:05.386Z,94788.00
2019-02-12T04:11:34.137Z,94785.31
2019-02-12T04:14:02.686Z,94786.36
2019-02-12T04:16:31.022Z,94790.16
2019-02-12T04:18:59.232Z,94778.61
2019-02-12T04:21:27.479Z,94783.20
2019-02-12T04:23:55.390Z,94771.41
2019-02-12T04:26:23.932Z,94775.73
2019-02-12T04:28:52.479Z,94776.76
2019-02-12T04:31:20.144Z,94771.17
2019-02-12T04:33:48.443Z,94775.43
2019-02-12T04:36:16.284Z,94778.31
2019-02-12T04:38:44.669Z,94782.88
2019-02-12T04:41:12.853Z,94780.34
2019-02-12T04:43:41.138Z,94789.27
2019-02-12T04:46:09.456Z,94793.11
2019-02-12T04:48:37.782Z,94791.84
2019-02-12T04:51:05.951Z,94792.80
2019-02-12T04:53:34.350Z,94793.58
2019-02-12T04:56:02.217Z,94792.14
2019-02-12T04:58:30.442Z,94800.69
2019-02-12T05:00:59.441Z,94792.55
2019-02-12T05:03:27.892Z,94788.64
2019-02-12T05:05:56.129Z,94784.77
2019-02-12T05:09:04.309Z,94792.84
2019-02-12T05:11:33.013Z,94792.60
2019-02-12T05:14:01.387Z,94790.02
2019-02-12T05:16:30.138Z,94784.44
2019-02-12T05:18:58.717Z,94781.00
2019-02-12T05:21:27.260Z,94784.34
2019-02-12T05:23:56.062Z,94784.58
2019-02-12T05:26:24.738Z,94790.97
2019-02-12T05:28:53.323Z,94786.58
2019-02-12T05:31:22.024Z,94781.75
2019-02-12T05:33:50.283Z,94779.81
2019-02-12T05:36:18.120Z,94783.09
2019-02-12T05:38:46.771Z,94786.75
2019-02-12T05:41:15.098Z,94788.42
2019-02-12T05:43:43.398Z,94785.60
2019-02-12T05:46:10.864Z,94792.64
2019-02-12T05:48:39.392Z,94794.43
2019-02-12T05:51:07.220Z,94789.34
2019-02-12T05:53:35.816Z,94789.25
2019-02-12T05:56:03.982Z,94794.86
2019-02-12T05:58:31.833Z,94793.48
2019-02-12T06:01:00.282Z,94788.02
2019-02-12T06:03:28.309Z,94794.15
2019-02-12T06:05:56.909Z,94809.17
2019-02-12T06:08:25.150Z,94813.30
2019-02-12T06:10:53.510Z,94819.34
2019-02-12T06:13:21.857Z,94820.23
2019-02-12T06:15:50.243Z,94819.34
2019-02-12T06:18:18.898Z,94817.28
2019-02-12T06:20:47.592Z,94822.83
2019-02-12T06:23:15.729Z,94826.70
2019-02-12T06:25:44.545Z,94819.11
2019-02-12T06:28:13.353Z,94812.97
2019-02-12T06:30:41.419Z,94816.78
2019-02-12T06:33:09.297Z,94820.52
2019-02-12T06:35:37.152Z,94817.73
2019-02-12T06:38:05.752Z,94822.20
2019-02-12T06:40:33.633Z,94820.60
2019-02-12T06:43:02.274Z,94829.89
2019-02-12T06:45:30.595Z,94827.31
2019-02-12T06:47:59.309Z,94836.65
2019-02-12T06:50:27.959Z,94842.45
2019-02-12T06:52:55.544Z,94835.39
2019-02-12T06:55:23.879Z,94839.06
2019-02-12T06:57:52.133Z,94836.55
2019-02-12T07:00:20.370Z,94841.10
2019-02-12T07:03:08.545Z,94845.30
2019-02-12T07:05:36.599Z,94849.53
2019-02-12T07:08:42.655Z,94843.37
2019-02-12T07:11:35.949Z,94851.08
2019-02-12T07:14:42.614Z,94850.38
2019-02-12T07:17:49.065Z,94846.94
2019-02-12T07:20:55.409Z,94844.41
2019-02-12T07:24:01.480Z,94848.81
2019-02-12T07:26:53.471Z,94852.24
2019-02-12T07:29:33.028Z,94851.41
2019-02-12T07:32:39.762Z,94857.17
2019-02-12T07:35:46.413Z,94855.82
2019-02-12T07:38:52.827Z,94858.75
2019-02-12T07:41:59.491Z,94867.16
2019-02-12T07:45:06.230Z,94868.09
2019-02-12T07:48:12.644Z,94882.17
2019-02-12T07:50:52.878Z,94884.89
2019-02-12T07:53:59.864Z,94887.64
2019-02-12T07:57:06.242Z,94898.09
2019-02-12T07:59:45.888Z,94903.68
2019-02-12T08:02:21.245Z,94904.05
2019-02-12T08:05:27.927Z,94911.55
2019-02-12T08:08:34.734Z,94919.34
2019-02-12T08:11:41.098Z,94926.83
2019-02-12T08:14:47.784Z,94916.54
2019-02-12T08:17:54.173Z,94920.72
2019-02-12T08:20:34.144Z,94928.24
2019-02-12T08:23:25.969Z,94923.55
2019-02-12T08:26:24.783Z,94926.77
2019-02-12T08:29:30.880Z,94926.18
2019-02-12T08:32:37.686Z,94923.27
2019-02-12T08:35:44.348Z,94943.61
2019-02-12T08:38:50.903Z,94939.64
2019-02-12T08:41:57.792Z,94949.63
2019-02-12T08:44:32.538Z,94948.77
2019-02-12T08:47:39.341Z,94948.42
2019-02-12T08:50:45.762Z,94952.95
2019-02-12T08:53:51.793Z,94940.39
2019-02-12T08:56:26.929Z,94942.78
2019-02-12T08:59:26.848Z,94954.16
2019-02-12T09:02:33.245Z,94958.09
2019-02-12T09:05:39.303Z,94952.02
2019-02-12T09:08:46.008Z,94950.80
2019-02-12T09:11:52.608Z,94958.38
2019-02-12T09:14:47.057Z,94959.94
2019-02-12T09:17:53.498Z,94965.06
2019-02-12T09:20:59.827Z,94972.30
2019-02-12T09:23:59.617Z,94969.47
2019-02-12T09:27:06.539Z,94983.72
2019-02-12T09:29:46.222Z,94983.06
2019-02-12T09:32:52.614Z,94984.13
2019-02-12T09:35:59.046Z,94977.58
2019-02-12T09:39:05.622Z,94979.48
2019-02-12T09:42:11.957Z,94984.06
2019-02-12T09:45:18.031Z,94985.02
2019-02-12T09:48:08.179Z,94989.80
2019-02-12T09:50:59.325Z,94996.61
2019-02-12T09:54:08.761Z,94988.07
2019-02-12T09:57:20.474Z,94984.51
2019-02-12T10:00:27.093Z,94980.25
2019-02-12T10:03:33.823Z,94983.00
2019-02-12T10:06:24.484Z,94984.80
2019-02-12T10:09:31.329Z,94994.79
2019-02-12T10:12:37.971Z,95003.66
2019-02-12T10:15:44.853Z,95003.98
2019-02-12T10:18:50.878Z,95008.67
2019-02-12T10:21:57.612Z,95001.08
2019-02-12T10:25:04.005Z,95009.25
2019-02-12T10:28:10.050Z,94996.02
2019-02-12T10:30:59.723Z,95003.14
2019-02-12T10:33:28.408Z,95004.77
2019-02-12T10:35:56.687Z,95014.02
2019-02-12T10:38:25.405Z,95008.11
2019-02-12T10:40:53.673Z,95009.31
2019-02-12T10:43:22.380Z,95005.07
2019-02-12T10:45:51.043Z,95006.02
2019-02-12T10:48:19.523Z,95010.73
2019-02-12T10:50:48.233Z,95017.22
2019-02-12T10:53:16.926Z,95014.11
2019-02-12T10:55:44.881Z,95008.34
2019-02-12T10:58:13.251Z,95014.72
2019-02-12T11:00:41.344Z,95011.77
2019-02-12T11:03:08.985Z,95012.48
2019-02-12T11:05:37.605Z,95016.83
2019-02-12T11:08:06.544Z,95018.34
2019-02-12T11:10:35.217Z,95012.56
2019-02-12T11:13:03.989Z,95022.03
2019-02-12T11:15:32.768Z,95022.66
2019-02-12T11:18:01.604Z,95019.03
2019-02-12T11:20:29.592Z,95012.80
2019-02-12T11:22:58.053Z,95017.63
2019-02-12T11:25:26.489Z,95009.56
2019-02-12T11:27:54.779Z,95000.95
2019-02-12T11:30:23.529Z,95001.66
2019-02-12T11:32:51.435Z,95001.57
2019-02-12T11:35:19.660Z,94998.49
2019-02-12T11:37:47.916Z,94999.01
2019-02-12T11:43:24.812Z,95005.41
2019-02-12T11:45:52.801Z,95008.83
2019-02-12T11:48:21.426Z,95012.07
2019-02-12T11:50:49.765Z,95012.69
2019-02-12T11:53:18.051Z,95019.03
2019-02-12T11:55:46.854Z,95021.34
2019-02-12T11:58:15.220Z,95015.33
2019-02-12T12:03:46.388Z,95026.13
2019-02-12T12:06:14.933Z,95024.57
2019-02-12T12:08:43.245Z,95024.48
2019-02-12T12:11:11.768Z,95030.02
2019-02-12T12:13:39.685Z,95031.02
2019-02-12T12:16:08.495Z,95020.60
2019-02-12T12:18:37.122Z,95016.05
2019-02-12T12:21:05.646Z,95016.09
2019-02-12T12:23:33.918Z,95006.08
2019-02-12T12:26:02.252Z,95007.68
2019-02-12T12:28:30.645Z,95011.31
2019-02-12T12:30:58.919Z,95008.64
2019-02-12T12:33:27.672Z,95012.22
2019-02-12T12:35:56.052Z,95008.55
2019-02-12T12:38:24.277Z,95012.35
2019-02-12T12:40:52.110Z,95016.58
2019-02-12T12:43:20.452Z,95018.03
2019-02-12T12:45:49.284Z,95019.87
2019-02-12T12:48:17.169Z,95019.33
2019-02-12T12:50:45.173Z,95027.73
2019-02-12T12:53:13.243Z,95026.09
2019-02-12T12:55:42.113Z,95024.45
2019-02-12T12:58:09.618Z,95016.09
2019-02-12T13:00:38.975Z,95011.20
2019-02-12T13:03:07.198Z,95007.06
2019-02-12T13:05:36.338Z,95013.77
2019-02-12T13:08:04.865Z,95019.20
2019-02-12T13:10:33.239Z,95020.23
2019-02-12T13:13:01.817Z,95022.92
2019-02-12T13:15:29.828Z,95033.80
2019-02-12T13:17:58.039Z,95030.67
2019-02-12T13:20:26.330Z,95031.63
2019-02-12T13:22:54.607Z,95034.09
2019-02-12T13:25:23.054Z,95039.48
2019-02-12T13:27:51.630Z,95039.44
2019-02-12T13:30:19.539Z,95032.17
2019-02-12T13:32:47.834Z,95035.05
2019-02-12T13:35:16.463Z,95034.44
2019-02-12T13:37:45.264Z,95038.41
2019-02-12T13:40:13.204Z,95034.31
2019-02-12T13:42:41.543Z,95028.09
2019-02-12T13:45:11.948Z,95017.04
2019-02-12T13:47:40.630Z,95024.44
2019-02-12T13:50:09.375Z,95014.23
2019-02-12T13:52:38.240Z,95021.86
2019-02-12T13:55:05.918Z,95017.38
2019-02-12T13:57:34.272Z,95025.58
2019-02-12T14:00:01.957Z,95021.02
2019-02-12T14:02:30.359Z,95027.61
2019-02-12T14:04:59.175Z,95037.83
2019-02-12T14:07:27.466Z,95042.06
2019-02-12T14:09:55.836Z,95040.20
2019-02-12T14:12:24.093Z,95039.60
2019-02-12T14:14:52.311Z,95032.41
2019-02-12T14:17:19.955Z,95027.67
2019-02-12T14:19:48.448Z,95032.19
2019-02-12T14:22:16.898Z,95029.74
2019-02-12T14:24:45.172Z,95023.65
2019-02-12T14:27:13.748Z,95020.97
2019-02-12T14:29:42.490Z,95023.76
2019-02-12T14:32:10.815Z,95030.06
2019-02-12T14:34:38.625Z,95023.00
2019-02-12T14:37:06.985Z,95024.48
2019-02-12T14:39:35.409Z,95030.13
2019-02-12T14:42:04.056Z,95035.80
2019-02-12T14:44:32.713Z,95033.31
2019-02-12T14:47:00.916Z,95038.70
2019-02-12T14:49:29.031Z,95042.73
2019-02-12T14:51:57.327Z,95041.00
2019-02-12T14:54:26.129Z,95037.13
2019-02-12T14:56:54.773Z,95030.63
2019-02-12T14:59:23.512Z,95032.06
2019-02-12T15:01:52.155Z,95028.98
2019-02-12T15:04:20.900Z,95027.73
2019-02-12T15:06:48.875Z,95032.02
2019-02-12T15:09:17.773Z,95035.66
2019-02-12T15:11:46.547Z,95030.06
2019-02-12T15:14:15.349Z,95037.34
2019-02-12T15:16:43.771Z,95042.03
2019-02-12T15:19:12.013Z,95046.30
2019-02-12T15:21:40.004Z,95040.95
2019-02-12T15:24:08.397Z,95044.80
2019-02-12T15:26:37.133Z,95049.01
2019-02-12T15:29:05.820Z,95044.06
2019-02-12T15:31:33.699Z,95047.06
2019-02-12T15:34:02.005Z,95047.89
2019-02-12T15:36:29.942Z,95052.16
2019-02-12T15:38:58.387Z,95048.23
2019-02-12T15:41:27.179Z,95049.31
2019-02-12T15:43:55.666Z,95051.16
2019-02-12T15:46:24.254Z,95060.66
2019-02-12T15:48:53.155Z,95057.84
2019-02-12T15:54:01.954Z,95054.09
2019-02-12T15:56:30.279Z,95055.16
2019-02-12T15:58:58.448Z,95059.23
2019-02-12T16:01:28.255Z,95057.34
2019-02-12T16:03:58.157Z,95058.06
2019-02-12T16:06:33.096Z,95053.09
2019-02-12T16:09:01.416Z,95056.88
2019-02-12T16:11:30.264Z,95061.97
2019-02-12T16:13:58.896Z,95059.42
2019-02-12T16:16:28.058Z,95061.36
2019-02-12T16:22:16.380Z,95064.91
2019-02-12T16:24:44.665Z,95062.20
2019-02-12T16:27:13.224Z,95064.28
2019-02-12T16:29:42.004Z,95068.30
2019-02-12T16:32:10.372Z,95071.13
2019-02-12T16:34:38.964Z,95076.48
2019-02-12T16:37:07.440Z,95077.68
2019-02-12T16:39:35.689Z,95088.12
2019-02-12T16:44:45.605Z,95094.80
2019-02-12T16:47:14.331Z,95096.55
2019-02-12T16:49:42.376Z,95105.81
2019-02-12T16:52:11.279Z,95102.88
2019-02-12T16:54:40.174Z,95105.06
2019-02-12T16:57:08.932Z,95104.98
2019-02-12T16:59:37.330Z,95103.60
2019-02-12T17:02:05.209Z,95108.56
2019-02-12T17:04:33.881Z,95098.88
2019-02-12T17:07:02.232Z,95108.58
2019-02-12T17:09:30.890Z,95112.63
2019-02-12T17:11:59.116Z,95116.09
2019-02-12T17:14:28.072Z,95121.91
2019-02-12T17:16:56.376Z,95128.03
2019-02-12T17:19:24.486Z,95127.73
2019-02-12T17:21:53.067Z,95131.16
2019-02-12T17:24:21.845Z,95141.84
2019-02-12T17:26:50.605Z,95149.06
2019-02-12T17:29:19.534Z,95153.50
2019-02-12T17:31:48.283Z,95165.72
2019-02-12T17:34:16.960Z,95163.16
2019-02-12T17:36:45.486Z,95161.77
2019-02-12T17:39:14.368Z,95166.83
2019-02-12T17:41:42.388Z,95167.23
2019-02-12T17:44:10.725Z,95177.59
2019-02-12T17:46:38.955Z,95171.69
2019-02-12T17:49:20.867Z,95172.00
2019-02-12T17:51:49.521Z,95177.52
2019-02-12T17:54:18.230Z,95176.50
2019-02-12T17:56:46.933Z,95174.59
2019-02-12T17:59:15.011Z,95181.61
2019-02-12T18:01:43.031Z,95182.77
2019-02-12T18:04:11.906Z,95186.13
2019-02-12T18:06:40.626Z,95184.32
2019-02-12T18:09:09.712Z,95185.15
2019-02-12T18:11:38.414Z,95180.77
2019-02-12T18:14:06.791Z,95179.70
2019-02-12T18:16:35.070Z,95177.41
2019-02-12T18:19:03.822Z,95184.31
2019-02-12T18:21:32.138Z,95185.41
2019-02-12T18:24:00.984Z,95197.13
2019-02-12T18:26:33.422Z,95192.77
2019-02-12T18:29:06.654Z,95189.77
2019-02-12T18:31:35.310Z,95193.31
2019-02-12T18:34:03.243Z,95187.59
2019-02-12T18:39:12.530Z,95194.99
2019-02-12T18:41:40.414Z,95200.25
2019-02-12T18:44:09.035Z,95209.08
2019-02-12T18:46:39.262Z,95208.31
2019-02-12T18:49:07.624Z,95205.64
2019-02-12T18:51:35.982Z,95201.34
2019-02-12T18:54:04.352Z,95200.02
2019-02-12T18:56:32.655Z,95195.30
2019-02-12T18:59:01.348Z,95187.41
2019-02-12T19:01:30.141Z,95194.56
2019-02-12T19:04:10.487Z,95199.86
2019-02-12T19:06:50.657Z,95202.27
2019-02-12T19:09:30.713Z,95211.45
2019-02-12T19:12:00.861Z,95219.91
2019-02-12T19:14:29.622Z,95219.48
2019-02-12T19:16:57.442Z,95218.75
2019-02-12T19:19:25.729Z,95222.09
2019-02-12T19:21:53.744Z,95225.89
2019-02-12T19:24:21.584Z,95221.30
2019-02-12T19:26:50.075Z,95222.83
2019-02-12T19:29:29.994Z,95225.34
2019-02-12T19:31:59.526Z,95223.81
2019-02-12T19:34:28.405Z,95224.20
2019-02-12T19:36:56.365Z,95222.19
2019-02-12T19:39:25.051Z,95212.02
2019-02-12T19:41:53.404Z,95223.80
2019-02-12T19:49:43.344Z,95223.06
2019-02-12T19:52:11.719Z,95235.06
2019-02-12T19:54:40.809Z,95232.77
2019-02-12T19:57:10.637Z,95231.77
2019-02-12T19:59:39.451Z,95231.13
2019-02-12T20:02:07.844Z,95226.50
2019-02-12T20:04:48.659Z,95234.66
2019-02-12T20:07:28.782Z,95230.39
2019-02-12T20:09:57.249Z,95235.98
2019-02-12T20:12:25.998Z,95237.87
2019-02-12T20:14:53.995Z,95242.87
2019-02-12T20:17:22.771Z,95240.08
2019-02-12T20:22:33.027Z,95254.18
2019-02-12T20:25:01.434Z,95250.91
2019-02-12T20:30:31.370Z,95252.58
2019-02-12T20:32:59.799Z,95260.33
2019-02-12T20:35:36.095Z,95255.64
2019-02-12T20:38:04.401Z,95249.88
2019-02-12T20:40:44.477Z,95249.83
2019-02-12T20:43:13.135Z,95256.15
2019-02-12T20:45:41.546Z,95252.09
2019-02-12T20:48:09.386Z,95256.81
2019-02-12T20:50:38.078Z,95251.77
2019-02-12T20:53:05.991Z,95246.03
2019-02-12T20:55:34.854Z,95243.61
2019-02-12T20:58:03.192Z,95235.53
2019-02-12T21:03:24.490Z,95236.75
2019-02-12T21:06:06.143Z,95231.05
2019-02-12T21:08:46.718Z,95230.86
2019-02-12T21:11:15.660Z,95243.97
2019-02-12T21:13:44.135Z,95250.23
2019-02-12T21:16:12.555Z,95237.98
2019-02-12T21:18:41.199Z,95226.23
2019-02-12T21:24:30.645Z,95240.67
2019-02-12T21:26:59.118Z,95245.70
2019-02-12T21:29:27.500Z,95246.48
2019-02-12T21:31:55.883Z,95243.97
2019-02-12T21:34:24.627Z,95244.04
2019-02-12T21:47:38.190Z,95235.00
2019-02-12T21:50:06.680Z,95244.27
2019-02-12T21:58:00.367Z,95263.90
2019-02-12T22:00:28.241Z,95267.55
2019-02-12T22:02:57.024Z,95268.63
2019-02-12T22:05:37.715Z,95275.33
2019-02-12T22:10:46.743Z,95274.48
2019-02-12T22:16:04.606Z,95266.31
2019-02-12T22:18:33.206Z,95266.85
2019-02-12T22:21:01.667Z,95266.63
2019-02-12T22:23:30.372Z,95269.04
2019-02-12T22:25:58.659Z,95275.65
2019-02-12T22:28:27.170Z,95276.70
2019-02-12T22:30:55.734Z,95277.04
2019-02-12T22:33:24.001Z,95279.08
2019-02-12T22:35:52.694Z,95280.52
2019-02-12T22:38:20.691Z,95275.31
2019-02-12T22:40:49.465Z,95267.03
2019-02-12T22:43:17.785Z,95270.00
2019-02-12T22:45:45.337Z,95268.44
2019-02-12T22:48:13.295Z,95263.61
2019-02-12T22:50:41.584Z,95256.56
2019-02-12T22:53:08.745Z,95251.73
2019-02-12T22:55:37.009Z,95253.23
2019-02-12T22:58:04.880Z,95254.86
2019-02-12T23:01:11.319Z,95257.80
2019-02-12T23:03:39.524Z,95257.94
2019-02-12T23:06:07.395Z,95258.02
2019-02-12T23:08:35.876Z,95258.33
2019-02-12T23:14:05.802Z,95252.99
2019-02-12T23:16:33.746Z,95249.65
2019-02-12T23:19:02.475Z,95242.00
2019-02-12T23:21:30.660Z,95238.75
2019-02-12T23:23:58.814Z,95243.34
2019-02-12T23:26:27.387Z,95241.89
2019-02-12T23:28:55.694Z,95244.33
2019-02-12T23:31:24.332Z,95235.28
2019-02-12T23:33:53.008Z,95237.31
2019-02-12T23:39:01.537Z,95234.77
2019-02-12T23:41:29.489Z,95232.68
2019-02-12T23:43:57.666Z,95240.03
2019-02-12T23:46:52.147Z,95237.25
2019-02-12T23:49:32.303Z,95244.44
2019-02-12T23:52:00.180Z,95235.53
2019-02-12T23:54:28.471Z,95224.13
2019-02-12T23:56:56.580Z,95216.00
2019-02-12T23:59:25.229Z,95212.91
